createdAt,value
2018-07-24T00:00:46.091Z,19.12
2018-07-24T00:03:52.493Z,19.10
2018-07-24T00:06:58.482Z,19.06
2018-07-24T00:10:04.454Z,19.03
2018-07-24T00:13:10.326Z,19.00
2018-07-24T00:16:16.128Z,18.98
2018-07-24T00:19:22.854Z,18.97
2018-07-24T00:22:28.326Z,18.93
2018-07-24T00:25:33.445Z,18.90
2018-07-24T00:28:39.899Z,18.89
2018-07-24T00:31:46.806Z,18.85
2018-07-24T00:34:52.867Z,18.81
2018-07-24T00:37:58.932Z,18.79
2018-07-24T00:41:04.037Z,18.77
2018-07-24T00:44:09.230Z,18.72
2018-07-24T00:47:15.122Z,18.67
2018-07-24T00:50:20.645Z,18.63
2018-07-24T00:53:26.934Z,18.59
2018-07-24T00:56:32.043Z,18.56
2018-07-24T00:59:36.853Z,18.54
2018-07-24T01:02:42.884Z,18.49
2018-07-24T01:05:48.261Z,18.47
2018-07-24T01:08:53.352Z,18.42
2018-07-24T01:11:58.521Z,18.37
2018-07-24T01:15:05.015Z,18.37
2018-07-24T01:18:11.097Z,18.32
2018-07-24T01:21:17.052Z,18.29
2018-07-24T01:24:23.769Z,18.24
2018-07-24T01:27:28.855Z,18.21
2018-07-24T01:30:33.989Z,18.19
2018-07-24T01:33:39.249Z,18.16
2018-07-24T01:36:44.366Z,18.13
2018-07-24T01:39:50.516Z,18.10
2018-07-24T01:42:55.625Z,18.06
2018-07-24T01:46:00.738Z,18.00
2018-07-24T01:49:05.565Z,17.98
2018-07-24T01:52:11.592Z,17.97
2018-07-24T01:55:17.645Z,17.94
2018-07-24T01:58:23.693Z,17.91
2018-07-24T02:01:29.343Z,17.88
2018-07-24T02:04:34.463Z,17.86
2018-07-24T02:07:39.642Z,17.83
2018-07-24T02:10:44.710Z,17.79
2018-07-24T02:13:49.798Z,17.78
2018-07-24T02:16:54.913Z,17.74
2018-07-24T02:20:00.717Z,17.70
2018-07-24T02:23:07.235Z,17.67
2018-07-24T02:26:13.288Z,17.66
2018-07-24T02:29:19.357Z,17.65
2018-07-24T02:32:25.280Z,17.63
2018-07-24T02:35:31.457Z,17.60
2018-07-24T02:38:37.255Z,17.57
2018-07-24T02:41:43.469Z,17.54
2018-07-24T02:44:50.412Z,17.52
2018-07-24T02:47:56.801Z,17.49
2018-07-24T02:51:02.965Z,17.50
2018-07-24T02:54:09.196Z,17.46
2018-07-24T02:57:15.482Z,17.43
2018-07-24T03:00:23.030Z,17.40
2018-07-24T03:03:30.041Z,17.36
2018-07-24T03:06:36.981Z,17.34
2018-07-24T03:09:43.255Z,17.34
2018-07-24T03:12:48.333Z,17.31
2018-07-24T03:15:53.440Z,17.30
2018-07-24T03:18:58.537Z,17.30
2018-07-24T03:22:04.044Z,17.25
2018-07-24T03:25:09.874Z,17.22
2018-07-24T03:28:16.163Z,17.21
2018-07-24T03:31:22.479Z,17.17
2018-07-24T03:34:28.278Z,17.15
2018-07-24T03:37:35.649Z,17.14
2018-07-24T03:40:42.813Z,17.11
2018-07-24T03:43:49.509Z,17.08
2018-07-24T03:46:55.893Z,17.08
2018-07-24T03:50:01.803Z,17.06
2018-07-24T03:53:07.853Z,17.05
2018-07-24T03:56:13.301Z,17.03
2018-07-24T03:59:18.750Z,17.01
2018-07-24T04:02:25.244Z,17.00
2018-07-24T04:05:31.500Z,16.97
2018-07-24T04:08:36.593Z,17.01
2018-07-24T04:11:42.014Z,16.97
2018-07-24T04:14:48.508Z,16.96
2018-07-24T04:17:55.262Z,16.95
2018-07-24T04:21:01.673Z,16.96
2018-07-24T04:24:08.794Z,16.95
2018-07-24T04:27:16.250Z,16.93
2018-07-24T04:30:22.281Z,16.98
2018-07-24T04:33:28.021Z,16.94
2018-07-24T04:36:33.276Z,16.94
2018-07-24T04:39:39.731Z,16.91
2018-07-24T04:42:46.710Z,16.87
2018-07-24T04:45:52.649Z,16.87
2018-07-24T04:48:59.674Z,16.86
2018-07-24T04:52:05.600Z,16.89
2018-07-24T04:55:11.972Z,16.89
2018-07-24T04:58:17.815Z,16.90
2018-07-24T05:01:22.942Z,16.92
2018-07-24T05:04:27.833Z,16.96
2018-07-24T05:07:32.946Z,17.00
2018-07-24T05:10:39.393Z,17.07
2018-07-24T05:13:45.304Z,17.13
2018-07-24T05:16:50.429Z,17.21
2018-07-24T05:19:55.729Z,17.27
2018-07-24T05:23:01.751Z,17.32
2018-07-24T05:26:08.706Z,17.35
2018-07-24T05:29:13.530Z,17.41
2018-07-24T05:32:18.872Z,17.47
2018-07-24T05:35:25.217Z,17.50
2018-07-24T05:38:30.630Z,17.54
2018-07-24T05:41:35.721Z,17.58
2018-07-24T05:44:42.775Z,17.64
2018-07-24T05:47:48.524Z,17.69
2018-07-24T05:50:53.635Z,17.75
2018-07-24T05:53:59.474Z,17.81
2018-07-24T05:57:04.577Z,17.87
2018-07-24T06:00:10.429Z,17.93
2018-07-24T06:03:16.349Z,17.97
2018-07-24T06:06:22.450Z,18.05
2018-07-24T06:09:27.549Z,18.12
2018-07-24T06:12:32.665Z,18.18
2018-07-24T06:15:39.037Z,18.25
2018-07-24T06:18:46.077Z,18.32
2018-07-24T06:21:52.002Z,18.40
2018-07-24T06:24:57.113Z,18.47
2018-07-24T06:28:01.943Z,18.56
2018-07-24T06:31:07.814Z,18.63
2018-07-24T06:34:15.221Z,18.72
2018-07-24T06:37:21.195Z,18.79
2018-07-24T06:40:26.035Z,18.89
2018-07-24T06:43:31.795Z,18.96
2018-07-24T06:46:38.745Z,19.05
2018-07-24T06:49:44.470Z,19.13
2018-07-24T06:52:50.341Z,19.21
2018-07-24T06:55:56.243Z,19.29
2018-07-24T06:59:01.871Z,19.38
2018-07-24T07:02:08.303Z,19.48
2018-07-24T07:05:14.305Z,19.57
2018-07-24T07:08:19.510Z,19.66
2018-07-24T07:11:24.627Z,19.77
2018-07-24T07:14:29.721Z,19.86
2018-07-24T07:17:35.911Z,19.95
2018-07-24T07:20:41.429Z,20.05
2018-07-24T07:23:46.894Z,20.15
2018-07-24T07:26:53.417Z,20.22
2018-07-24T07:29:59.026Z,20.33
2018-07-24T07:33:04.194Z,20.44
2018-07-24T07:36:10.247Z,20.54
2018-07-24T07:39:16.314Z,20.63
2018-07-24T07:42:22.657Z,20.72
2018-07-24T07:45:27.502Z,20.82
2018-07-24T07:48:34.346Z,20.92
2018-07-24T07:51:41.306Z,21.03
2018-07-24T07:54:47.357Z,21.14
2018-07-24T07:57:53.770Z,21.24
2018-07-24T08:01:00.824Z,21.36
2018-07-24T08:04:07.047Z,21.45
2018-07-24T08:07:13.187Z,21.56
2018-07-24T08:10:19.491Z,21.66
2018-07-24T08:13:25.317Z,21.78
2018-07-24T08:16:31.178Z,21.89
2018-07-24T08:19:36.294Z,22.00
2018-07-24T08:22:41.709Z,22.11
2018-07-24T08:25:48.749Z,22.23
2018-07-24T08:28:56.102Z,22.35
2018-07-24T08:32:01.865Z,22.47
2018-07-24T08:35:07.301Z,22.59
2018-07-24T08:38:13.249Z,22.70
2018-07-24T08:41:19.617Z,22.82
2018-07-24T08:44:26.001Z,22.97
2018-07-24T08:47:31.600Z,23.08
2018-07-24T08:50:37.965Z,23.22
2018-07-24T08:53:44.162Z,23.34
2018-07-24T08:56:50.488Z,23.46
2018-07-24T08:59:56.312Z,23.58
2018-07-24T09:03:01.538Z,23.71
2018-07-24T09:06:07.525Z,23.83
2018-07-24T09:09:13.414Z,23.95
2018-07-24T09:12:19.022Z,24.07
2018-07-24T09:15:24.694Z,24.20
2018-07-24T09:18:30.859Z,24.32
2018-07-24T09:21:35.964Z,24.44
2018-07-24T09:24:41.061Z,24.54
2018-07-24T09:27:46.605Z,24.68
2018-07-24T09:30:51.826Z,24.79
2018-07-24T09:33:57.257Z,24.92
2018-07-24T09:37:03.709Z,25.06
2018-07-24T09:40:09.772Z,25.19
2018-07-24T09:43:16.226Z,25.34
2018-07-24T09:46:22.549Z,25.46
2018-07-24T09:49:28.718Z,25.56
2018-07-24T09:52:34.548Z,25.68
2018-07-24T09:55:39.976Z,25.84
2018-07-24T09:58:46.980Z,26.03
2018-07-24T10:01:52.113Z,26.15
2018-07-24T10:04:59.263Z,26.31
2018-07-24T10:08:06.392Z,26.45
2018-07-24T10:11:13.394Z,26.54
2018-07-24T10:14:19.352Z,26.66
2018-07-24T10:17:24.796Z,26.80
2018-07-24T10:20:30.713Z,26.82
2018-07-24T10:23:37.035Z,26.83
2018-07-24T10:26:42.901Z,26.80
2018-07-24T10:29:48.010Z,26.85
2018-07-24T10:32:54.133Z,26.87
2018-07-24T10:35:59.697Z,26.92
2018-07-24T10:39:08.400Z,26.97
2018-07-24T10:42:14.154Z,27.05
2018-07-24T10:45:20.199Z,27.13
2018-07-24T10:48:27.569Z,27.19
2018-07-24T10:51:33.575Z,27.28
2018-07-24T10:54:38.721Z,27.32
2018-07-24T10:57:43.820Z,27.38
2018-07-24T11:00:49.169Z,27.46
2018-07-24T11:03:54.054Z,27.54
2018-07-24T11:06:59.136Z,27.60
2018-07-24T11:10:05.510Z,27.65
2018-07-24T11:13:11.666Z,27.71
2018-07-24T11:16:17.393Z,27.74
2018-07-24T11:19:23.211Z,27.74
2018-07-24T11:22:29.833Z,27.76
2018-07-24T11:25:37.391Z,27.78
2018-07-24T11:28:43.489Z,27.82
2018-07-24T11:31:49.653Z,27.85
2018-07-24T11:34:55.797Z,27.87
2018-07-24T11:38:02.139Z,27.91
2018-07-24T11:41:08.571Z,27.93
2018-07-24T11:44:13.869Z,27.97
2018-07-24T11:47:19.503Z,28.00
2018-07-24T11:50:24.617Z,28.05
2018-07-24T11:53:29.746Z,28.12
2018-07-24T11:56:35.206Z,28.18
2018-07-24T11:59:40.333Z,28.28
2018-07-24T12:02:45.433Z,28.33
2018-07-24T12:05:51.882Z,28.40
2018-07-24T12:08:57.825Z,28.47
2018-07-24T12:12:02.966Z,28.53
2018-07-24T12:15:09.151Z,28.59
2018-07-24T12:18:14.912Z,28.66
2018-07-24T12:21:20.389Z,28.74
2018-07-24T12:24:25.841Z,28.84
2018-07-24T12:27:31.479Z,28.91
2018-07-24T12:30:37.732Z,28.96
2018-07-24T12:33:43.657Z,29.00
2018-07-24T12:36:49.725Z,29.06
2018-07-24T12:39:56.089Z,29.09
2018-07-24T12:43:02.027Z,29.13
2018-07-24T12:46:08.237Z,29.17
2018-07-24T12:49:13.672Z,29.20
2018-07-24T12:52:18.848Z,29.27
2018-07-24T12:55:24.169Z,29.35
2018-07-24T12:58:30.593Z,29.43
2018-07-24T13:01:37.017Z,29.50
2018-07-24T13:04:42.910Z,29.56
2018-07-24T13:07:49.201Z,29.60
2018-07-24T13:10:55.190Z,29.65
2018-07-24T13:14:01.393Z,29.67
2018-07-24T13:17:07.446Z,29.72
2018-07-24T13:20:13.216Z,29.79
2018-07-24T13:23:19.520Z,29.85
2018-07-24T13:26:25.169Z,29.88
2018-07-24T13:29:30.241Z,29.90
2018-07-24T13:32:35.420Z,29.94
2018-07-24T13:35:42.822Z,29.98
2018-07-24T13:38:48.868Z,30.00
2018-07-24T13:41:54.306Z,30.04
2018-07-24T13:45:00.192Z,30.07
2018-07-24T13:48:06.659Z,30.13
2018-07-24T13:51:13.642Z,30.15
2018-07-24T13:54:20.445Z,30.19
2018-07-24T13:57:26.357Z,30.25
2018-07-24T14:00:31.457Z,30.29
2018-07-24T14:03:37.573Z,30.35
2018-07-24T14:06:43.015Z,30.43
2018-07-24T14:09:48.118Z,30.50
2018-07-24T14:12:53.666Z,30.56
2018-07-24T14:16:00.046Z,30.63
2018-07-24T14:19:06.141Z,30.69
2018-07-24T14:22:12.423Z,30.76
2018-07-24T14:25:18.401Z,30.82
2018-07-24T14:28:23.491Z,30.88
2018-07-24T14:31:29.481Z,30.91
2018-07-24T14:34:34.611Z,30.93
2018-07-24T14:37:40.248Z,31.03
2018-07-24T14:40:46.282Z,31.08
2018-07-24T14:43:52.312Z,31.09
2018-07-24T14:46:57.782Z,31.11
2018-07-24T14:50:03.743Z,31.12
2018-07-24T14:53:11.002Z,31.11
2018-07-24T14:56:17.070Z,31.14
2018-07-24T14:59:22.198Z,31.20
2018-07-24T15:02:27.297Z,31.27
2018-07-24T15:05:32.754Z,31.31
2018-07-24T15:08:37.866Z,31.33
2018-07-24T15:11:42.936Z,31.34
2018-07-24T15:14:48.058Z,31.37
2018-07-24T15:17:53.725Z,31.39
2018-07-24T15:21:00.126Z,31.41
2018-07-24T15:24:05.872Z,31.43
2018-07-24T15:27:11.029Z,31.42
2018-07-24T15:30:16.721Z,31.39
2018-07-24T15:33:22.730Z,31.34
2018-07-24T15:36:29.060Z,31.39
2018-07-24T15:39:36.482Z,31.39
2018-07-24T15:42:42.550Z,31.39
2018-07-24T15:45:48.413Z,31.39
2018-07-24T15:48:53.551Z,31.39
2018-07-24T15:51:58.681Z,31.40
2018-07-24T15:55:04.331Z,31.31
2018-07-24T15:58:10.633Z,31.30
2018-07-24T16:01:17.176Z,31.25
2018-07-24T16:04:23.110Z,31.18
2018-07-24T16:07:29.296Z,31.12
2018-07-24T16:10:35.478Z,31.06
2018-07-24T16:13:41.393Z,31.01
2018-07-24T16:16:46.849Z,30.96
2018-07-24T16:19:52.316Z,30.91
2018-07-24T16:22:59.182Z,30.88
2018-07-24T16:26:05.200Z,30.84
2018-07-24T16:29:10.342Z,30.80
2018-07-24T16:32:16.458Z,30.77
2018-07-24T16:35:21.613Z,30.72
2018-07-24T16:38:28.075Z,30.70
2018-07-24T16:41:35.429Z,30.67
2018-07-24T16:44:41.157Z,30.65
2018-07-24T16:47:47.229Z,30.62
2018-07-24T16:50:52.706Z,30.57
2018-07-24T16:53:59.725Z,30.54
2018-07-24T16:57:04.865Z,30.51
2018-07-24T17:00:10.506Z,30.49
2018-07-24T17:03:16.598Z,30.46
2018-07-24T17:06:21.699Z,30.43
2018-07-24T17:09:26.867Z,30.39
2018-07-24T17:12:31.967Z,30.34
2018-07-24T17:15:37.469Z,30.31
2018-07-24T17:18:43.420Z,30.26
2018-07-24T17:21:48.598Z,30.21
2018-07-24T17:24:53.909Z,30.14
2018-07-24T17:27:59.666Z,30.07
2018-07-24T17:31:05.229Z,30.01
2018-07-24T17:34:10.366Z,29.93
2018-07-24T17:37:15.472Z,29.85
2018-07-24T17:40:21.084Z,29.74
2018-07-24T17:43:27.336Z,29.66
2018-07-24T17:46:33.130Z,29.57
2018-07-24T17:49:40.145Z,29.48
2018-07-24T17:52:46.284Z,29.37
2018-07-24T17:55:51.482Z,29.27
2018-07-24T17:58:56.638Z,29.19
2018-07-24T18:02:02.303Z,29.11
2018-07-24T18:05:08.429Z,29.00
2018-07-24T18:08:14.414Z,28.91
2018-07-24T18:11:19.883Z,28.83
2018-07-24T18:14:27.131Z,28.73
2018-07-24T18:17:32.810Z,28.63
2018-07-24T18:20:38.758Z,28.54
2018-07-24T18:23:44.665Z,28.45
2018-07-24T18:26:50.992Z,28.36
2018-07-24T18:29:56.938Z,28.28
2018-07-24T18:33:03.137Z,28.18
2018-07-24T18:36:09.870Z,28.09
2018-07-24T18:39:16.598Z,28.01
2018-07-24T18:42:22.081Z,27.91
2018-07-24T18:45:27.227Z,27.84
2018-07-24T18:48:33.266Z,27.75
2018-07-24T18:51:38.394Z,27.67
2018-07-24T18:54:43.637Z,27.58
2018-07-24T18:57:48.766Z,27.49
2018-07-24T19:00:53.912Z,27.41
2018-07-24T19:03:59.470Z,27.34
2018-07-24T19:07:04.748Z,27.25
2018-07-24T19:10:10.777Z,27.17
2018-07-24T19:13:16.270Z,27.10
2018-07-24T19:16:22.298Z,27.02
2018-07-24T19:19:27.536Z,26.94
2018-07-24T19:22:33.686Z,26.87
2018-07-24T19:25:39.157Z,26.79
2018-07-24T19:28:44.300Z,26.73
2018-07-24T19:31:49.425Z,26.63
2018-07-24T19:34:55.999Z,26.58
2018-07-24T19:38:01.791Z,26.49
2018-07-24T19:41:06.909Z,26.43
2018-07-24T19:44:13.185Z,26.34
2018-07-24T19:47:18.389Z,26.27
2018-07-24T19:50:24.552Z,26.20
2018-07-24T19:53:32.348Z,26.12
2018-07-24T19:56:38.332Z,26.06
2018-07-24T19:59:44.524Z,25.99
2018-07-24T20:02:50.102Z,25.91
2018-07-24T20:05:55.649Z,25.83
2018-07-24T20:09:01.655Z,25.76
2018-07-24T20:12:08.404Z,25.70
2018-07-24T20:15:18.677Z,25.64
2018-07-24T20:18:24.722Z,25.57
2018-07-24T20:21:30.345Z,25.49
2018-07-24T20:24:46.470Z,25.42
2018-07-24T20:27:53.863Z,25.36
2018-07-24T20:30:59.944Z,25.29
2018-07-24T20:34:05.833Z,25.22
2018-07-24T20:37:10.909Z,25.15
2018-07-24T20:40:16.420Z,25.09
2018-07-24T20:43:22.084Z,25.00
2018-07-24T20:46:27.197Z,24.96
2018-07-24T20:49:32.705Z,24.87
2018-07-24T20:52:37.801Z,24.81
2018-07-24T20:55:42.922Z,24.75
2018-07-24T20:58:48.325Z,24.68
2018-07-24T21:01:54.151Z,24.61
2018-07-24T21:05:00.445Z,24.56
2018-07-24T21:08:07.842Z,24.49
2018-07-24T21:11:14.529Z,24.43
2018-07-24T21:14:20.544Z,24.37
2018-07-24T21:17:26.589Z,24.30
2018-07-24T21:20:31.559Z,24.23
2018-07-24T21:23:36.660Z,24.18
2018-07-24T21:26:41.758Z,24.11
2018-07-24T21:29:47.895Z,24.04
2018-07-24T21:32:54.400Z,23.98
2018-07-24T21:36:02.348Z,23.93
2018-07-24T21:39:09.096Z,23.86
2018-07-24T21:42:14.913Z,23.81
2018-07-24T21:45:20.457Z,23.76
2018-07-24T21:48:26.609Z,23.69
2018-07-24T21:51:32.729Z,23.63
2018-07-24T21:54:39.232Z,23.57
2018-07-24T21:57:44.504Z,23.52
2018-07-24T22:00:55.414Z,23.45
2018-07-24T22:04:00.855Z,23.40
2018-07-24T22:07:05.994Z,23.35
2018-07-24T22:10:16.898Z,23.29
2018-07-24T22:13:23.864Z,23.24
2018-07-24T22:16:29.323Z,23.18
2018-07-24T22:19:35.420Z,23.13
2018-07-24T22:22:40.244Z,23.08
2018-07-24T22:25:46.937Z,23.04
2018-07-24T22:28:53.933Z,22.99
2018-07-24T22:31:59.727Z,22.95
2018-07-24T22:35:06.565Z,22.88
2018-07-24T22:38:13.921Z,22.84
2018-07-24T22:41:19.636Z,22.79
2018-07-24T22:44:25.669Z,22.76
2018-07-24T22:47:30.787Z,22.71
2018-07-24T22:50:35.905Z,22.67
2018-07-24T22:53:40.993Z,22.63
2018-07-24T22:56:47.355Z,22.57
2018-07-24T22:59:53.601Z,22.54
2018-07-24T23:02:59.102Z,22.49
2018-07-24T23:06:06.478Z,22.44
2018-07-24T23:09:12.171Z,22.39
2018-07-24T23:12:25.817Z,22.35
2018-07-24T23:15:32.310Z,22.31
2018-07-24T23:18:38.917Z,22.25
2018-07-24T23:21:44.817Z,22.21
2018-07-24T23:24:49.953Z,22.15
2018-07-24T23:27:55.196Z,22.09
2018-07-24T23:31:00.873Z,22.06
2018-07-24T23:34:07.578Z,22.01
2018-07-24T23:37:13.257Z,21.94
2018-07-24T23:40:18.364Z,21.91
2018-07-24T23:43:24.045Z,21.87
2018-07-24T23:46:29.148Z,21.83
2018-07-24T23:49:35.146Z,21.79
2018-07-24T23:52:41.253Z,21.75
2018-07-24T23:55:49.000Z,21.69
2018-07-24T23:58:55.969Z,21.65
